Dutch
Home     News     Corporate     Events & Tours     Flight ops     Crew centre      
My transavia virtual    Join us    Last logs    Who is flying    Software    Training    VRTS     
 

view flightdata
view flightplan
view OFP
view flightlog



flightdata:
pilot: Luis Ferraz
flight: TVF4001
from: LMML (Malta)
to: LFPO (Paris Paris Orly)
date: 25-08-2019
departure: 13:43z
arrival: 16:17z
duration: 2:32
aircraft: B738 (FGZHR)
distance: 982 NM
touchdown: -212 ft/m @ 131 KIAS



flightplan:
-(FPL-TVF4001-IS
-B738/M-SDFGHIRWXY/LB1
-LMML1342
-N0454F360 GZO M622 ADEXI DCT GIANO DCT POKAV DCT TOBGA DCT DOBIM UM616 PIGOS/N0454F380 UM733 GIPNO/N0455F340 UM733 ARDOL
-LFPO0221 LFPG
-EET/LIRR0011 LFFF0109 PBN/A1B1D1O1S1 DOF/190825 REG/FGZHR SEL/JSGL CODE/4841A5 OPR/TVF RVR/200 RMK/TCAS CALLSIGN FRANCE SOLEIL)



operational flightplan (OFP):
DISPATCH BRIEFING (TEL:
--------- --------- --------- --------- --------- --------- ---------  
PREDEPARTURE ATC CLEARANCE:
.
.
--------- --------- --------- --------- --------- --------- ---------  
OFP  1    25 AUG 19/13:27
                                    OBS  2013

TVF4001    C/S TVF4001  LMML/MLA   LFPO/ORY         CRZ SYS     CI 36
25 AUG 19  F-GZHR       1505/1505  1736/1741        GND DIST      975
B737-800 CFTAB:.....    CTOT:....  STA  1745        AIR DIST      975
                                                    AVG W/C         0
MAXIMUM    ZFW  61688  LAW  66360  TOW  78999       AVG ISA       M05
ESTIMATED  ZFW  59438  LAW  61998  TOW  67993       F-F FACTOR    0.0
ACTUAL     ZFW  .....  LAW  .....  TOW  .....
--------- --------- --------- --------- --------- --------- ---------
TRIP        5995   0221           .....  .....
CONT         300   0008           .....  .....
ALTN         740   0016  LFPG     .....  .....  ....
FINAL       1105   0030           .....  .....
ADDNL        415   0011           .....  .....
TANKERING                  
PLN TOF     8140   0315
DIFF        ....   ....
PLN TOF     ....   ....  (CORRECTED)   
EXTRA          0   ....                  
TOF         8140   ....                 
TAXI         120   ....                  
BLOCK       8675   ....        
--------- --------- --------- --------- --------- --------- ---------
REASON EXTRA FUEL      MATRIX FUEL:
O ECN-ECONAMICAL     O TMP-TEMPORARILY      O ATC-AIR TRAFFIC CNTRL
O FOB-FUEL ON.BOARD  O MSC-MISCELLANEOUS    O FPC-FLIGHT PLN CORR
O WXR-WEATHER        O TEC-TECHNICAL        ACT.CI/CRZ USED: . . .   

--------- --------- --------- --------- --------- --------- ---------

ZFW ZFW 1000 : PLN TOF   XXXXX/TRIP XXXXX 00 MIN HOLD DEST: 0 EXTRA
ZFW ZFW-1000 : PLN TOF   XXXXX/TRIP XXXXX
--------- --------- --------- --------- --------- --------- ---------
COMMANDERS NAME:                           SIGNATURE:

--------- --------- --------- --------- --------- --------- ---------
FROM:  LMML ELEV297      TO: LFPO ELEV291        ALTN: LFPG ELEV 392
ATC C/S     : TVF40TVF4001            AVG ISA : M05
CO-ROUTE    :                        AVG TT  :   
FMC-RES FUEL: 1845                   AVG W/C :    0
CRZ ALT     : FL360                  FL310
CI          : CI 36                  FL200     360/000
                                     FL100

LMML/31  N0454F360 GZO3D GZO M622 ADEXI DCT GIANO DCT POKAV DCT
TOBGA DCT DOBIM UM616 PIGOS/N0454F380 UM733 GIPNO/N0455F340
UM733 ARDOL ARDO8E LFPO/26

--------- --------- --------- --------- --------- --------- ---------
.
.
--------- --------- --------- --------- --------- --------- ---------
RVSM ALT CHECK:  FL:...... LEFT: ...... STBY: ...... RIGHT: ......

--------- --------- --------- --------- --------- --------- ---------
DESTINATION ALTERNATE LFPG
--------- --------- --------- --------- --------- --------- ---------

--------- --------- --------- --------- --------- --------- ---------
--------- --------- --------- --------- --------- --------- ---------
ALTERNATE SUMMARY
--------- --------- --------- --------- --------- --------- ---------
      ALTN        DIST   LVL       WC TIME  FUEL VIA
      LFPG/27R      60  FL100    0 0016   740 TSU DCT PON
INFO/LFQQ/26      161  FL240    0 0032  1424 NURM7Q NURMO UN874 CMB
                                           CMB5B
INFO/LFRS/21      208  FL290    0 0038  1692 LGL7Q LGL UT176 ROLEN
                                           UZ15 ARDOD A5 VALAX
                                           VALA1A
INFO/EBBR/25R     214  FL300    0 0039  1726 NURM7Q NURMO UN874 CMB
                                           UZ373 ARVOL ARVO7A
--------- --------- --------- --------- --------- --------- ---------

-(FPL-TVF4001-IS
-B738/M-SDFGHIRWXY/LB1
-LMML1342
-N0454F360 GZO M622 ADEXI DCT GIANO DCT POKAV DCT TOBGA DCT DOBIM UM616 PIGOS/N0454F380 UM733 GIPNO/N0455F340 UM733 ARDOL
-LFPO0221 LFPG
-EET/LIRR0011 LFFF0109 PBN/A1B1D1O1S1 DOF/190825 REG/FGZHR SEL/JSGL CODE/4841A5 OPR/TVF RVR/200 RMK/TCAS CALLSIGN FRANCE SOLEIL)

WEATHER BRIEFING - GENERATED 25 AUG 2019 13:27 UTC
--------------------------------------------------------------------------------

LMML LFPO LFPG LFQQ LFRS EBBR

--------------------------------------------------------------------------------
ORIGIN: LMML (MALTA)
--------------------------------------------------------------------------------
LMML 251245Z 04006KT 360V070 9999 FEW033 31/21 Q1015 NOSIG

LMML 251100Z 2512/2612 VRB05KT 9999 FEW030


--------------------------------------------------------------------------------
DESTINATION: LFPO (PARIS)
--------------------------------------------------------------------------------
LFPO 251300Z 15004KT 120V200 CAVOK 31/11 Q1018 NOSIG

LFPO 251100Z 2512/2618 07005KT CAVOK


--------------------------------------------------------------------------------
ALTERNATE: LFPG (PARIS)
--------------------------------------------------------------------------------
LFPG 251300Z 35005KT 290V050 CAVOK 31/12 Q1018 NOSIG

LFPG 251100Z 2512/2618 03005KT CAVOK TX32/2515Z TN18/2618Z=  LFPO 251100Z 2512/2618 07005KT CAVOK


--------------------------------------------------------------------------------
ALTERNATE: LFQQ (LILLE)
--------------------------------------------------------------------------------
LFQQ 251300Z AUTO 16005KT 090V200 CAVOK 31/12 Q1018 NOSIG

LFQQ 251100Z 2512/2618 VRB03KT CAVOK
      TEMPO 2517/2518 32013KT


--------------------------------------------------------------------------------
ALTERNATE: LFRS (NANTES)
--------------------------------------------------------------------------------
LFRS 251300Z AUTO 22007KT 190V290 CAVOK 26/16 Q1018 NOSIG

LFRS 251100Z 2512/2618 VRB05KT CAVOK


--------------------------------------------------------------------------------
ALTERNATE: EBBR (BRUSSELS)
--------------------------------------------------------------------------------
EBBR 251250Z VRB04KT CAVOK 30/13 Q1019 NOSIG

EBBR 251115Z 2512/2618 VRB03KT CAVOK=  EDDF 251100Z 2512/2618 09004KT CAVOK PROB30
      TEMPO 2514/2518 TSRA BKN050CB PROB30
      TEMPO 2603/2606 2000 BCFG
      TEMPO 2613/2617 TSRA BKN040CB


NOTAM BRIEFING - GENERATED 25 AUG 2019 13:27 UTC
--------------------------------------------------------------------------------

LMML LFPO LFPG LFPG LFQQ LFRS EBBR

--------------------------------------------------------------------------------
GLOBAL TRANSAVIA.COM VIRTUAL NOTAMS
--------------------------------------------------------------------------------
REF:NIL PLEASE CONTACT OPERATIONS IN CASE OF STRUCTURAL FLIGHTPLAN ERRORS ON FLIGHT-OPS@TRANSAVIA-VIRTUAL.COM
VALID:UFN

REF:NIL
PLEASE CHECK ACARS EVERY 10 MINUTES WHEN FLYING WITH SOUND OFF. AN NEW ACARS MESSAGE PRODUCE A SOUND SIGNAL UNTILL ITS READ. FLOWCONTROL DON'T RECEIVE MUCH REACTION ON OUTGOING ACARS MESSAGES ACCORDING FLIGHTSTATUS.
SOURCE: SPL/HV/OCC/
END VALID: UFN

REF:NIL
PLEASE CONTACT FLOWCONTROL IN CASE OF PROBLEMS WITH ROUTINGS
SOURCE: SPL/HV/OCC/
END VALID: UFN

REF:NIL
IN CASE OF ENGINE-OUT FLY V2 OR V2 20 MAX. UNTIL ABOVE MSA.
LEVEL-OFF AT AN ALTITUDE ROUNDED OFF TO THE FIRST 1000 FT OF THE HIGHEST MSA.
E.G: MSA EHAM; 1.7 AND 2.3 LEVEL-OFF 3000 FT. AFTER LANDING MAKE A REP TO OCC ON 131.975
SOURCE:SPL/HV/OCC
END VALID:UFN



flightlog:
Pilot : Luis Ferraz
Flight: TVF4001
From  : LMML Malta
To    : LFPO Paris

[FLIGHTLOG] 1.5.4
25-08-2019 13:36:55z, logging started
25-08-2019 13:37:32z, flaps set to 13%
25-08-2019 13:37:39z, flaps set to 25%
25-08-2019 13:37:43z, flaps set to 38%
25-08-2019 13:43:23z, parking brake released
25-08-2019 13:48:31z, take-off at 169 KIAS
25-08-2019 13:48:31z, pos report: 169 KIAS, 00 310 ft, heading 314, winds 199 @ 06 kts
25-08-2019 13:48:31z, flying OFFLINE
25-08-2019 13:48:31z, position: LMML - Malta
25-08-2019 13:48:41z, retracted gear at 177 KIAS and 446 ft AGL
25-08-2019 13:49:59z, flaps set to 25%
25-08-2019 13:50:04z, flaps set to 13%
25-08-2019 13:50:11z, flaps set to 0%
25-08-2019 13:51:55z, pos report: 254 KIAS, 09 917 ft, heading 309, winds 357 @ 08 kts
25-08-2019 14:06:56z, pos report: 286 KIAS, 32 755 ft, heading 339, winds 266 @ 21 kts
25-08-2019 14:21:57z, pos report: 265 KIAS, 36 036 ft, heading 334, winds 280 @ 28 kts
25-08-2019 14:36:58z, pos report: 265 KIAS, 36 041 ft, heading 329, winds 289 @ 28 kts
25-08-2019 14:51:59z, pos report: 265 KIAS, 36 049 ft, heading 328, winds 294 @ 24 kts
25-08-2019 15:07:01z, pos report: 265 KIAS, 36 078 ft, heading 288, winds 286 @ 16 kts
25-08-2019 15:22:02z, pos report: 264 KIAS, 36 087 ft, heading 324, winds 251 @ 09 kts
25-08-2019 15:37:03z, pos report: 264 KIAS, 36 072 ft, heading 334, winds 240 @ 09 kts
25-08-2019 15:52:04z, pos report: 287 KIAS, 25 167 ft, heading 334, winds 225 @ 08 kts
25-08-2019 15:56:14z, deployed spoilers
25-08-2019 16:05:58z, flaps set to 13%
25-08-2019 16:06:06z, flaps set to 25%
25-08-2019 16:06:09z, flaps set to 38%
25-08-2019 16:07:05z, pos report: 209 KIAS, 05 964 ft, heading 331, winds 321 @ 02 kts
25-08-2019 16:07:22z, retracted spoilers
25-08-2019 16:10:23z, flaps set to 50%
25-08-2019 16:10:25z, lowered gear at 185 KIAS and 3341 ft AGL
25-08-2019 16:10:27z, flaps set to 62%
25-08-2019 16:10:29z, flaps set to 75%
25-08-2019 16:10:40z, flaps set to 87%
25-08-2019 16:10:47z, intercepted localizer
25-08-2019 16:11:06z, flaps set to 100%
25-08-2019 16:14:46z, touchdown: -212ft/m at 131 KIAS
25-08-2019 16:14:46z, pos report: 131 KIAS, 00 300 ft, heading 254, winds 319 @ 03 kts
25-08-2019 16:14:46z, flying OFFLINE
25-08-2019 16:14:46z, position: LFPO - Paris
25-08-2019 16:14:47z, deployed spoilers
25-08-2019 16:15:12z, retracted spoilers
25-08-2019 16:15:20z, flaps set to 87%
25-08-2019 16:15:25z, flaps set to 75%
25-08-2019 16:15:28z, flaps set to 62%
25-08-2019 16:15:30z, flaps set to 50%
25-08-2019 16:15:34z, flaps set to 38%
25-08-2019 16:15:39z, flaps set to 25%
25-08-2019 16:15:42z, flaps set to 13%
25-08-2019 16:15:49z, flaps set to 0%
25-08-2019 16:17:26z, parking brake set
25-08-2019 16:17:52z, logging ended
25-08-2019 16:17:52z, this flight was flown offline

©2009-2020, transavia virtual. All rights reserved. This website is only meant for simulation purposes.
This website is not owned by transavia, nor is transavia responsible for the content of this website.